sensor_id;sensor_type;location;lat;lon;timestamp;pressure;altitude;pressure_sealevel;temperature
14023;BMP180;7086;48.116;11.580;2024-03-23T00:55:54;94737.00;;;16.20
14023;BMP180;7086;48.116;11.580;2024-03-23T00:58:21;94730.00;;;16.20
14023;BMP180;7086;48.116;11.580;2024-03-23T01:00:47;94722.00;;;16.20
14023;BMP180;7086;48.116;11.580;2024-03-23T01:03:14;94719.00;;;16.30
14023;BMP180;7086;48.116;11.580;2024-03-23T01:05:40;94712.00;;;16.30
14023;BMP180;7086;48.116;11.580;2024-03-23T01:08:07;94710.00;;;16.40
14023;BMP180;7086;48.116;11.580;2024-03-23T01:10:32;94707.00;;;16.40
14023;BMP180;7086;48.116;11.580;2024-03-23T01:13:01;94701.00;;;16.50
14023;BMP180;7086;48.116;11.580;2024-03-23T01:15:27;94698.00;;;16.50
14023;BMP180;7086;48.116;11.580;2024-03-23T01:17:54;94702.00;;;16.60
14023;BMP180;7086;48.116;11.580;2024-03-23T01:20:20;94696.00;;;16.60
14023;BMP180;7086;48.116;11.580;2024-03-23T01:22:46;94693.00;;;16.60
14023;BMP180;7086;48.116;11.580;2024-03-23T01:25:12;94692.00;;;16.70
14023;BMP180;7086;48.116;11.580;2024-03-23T01:27:39;94690.00;;;16.70
14023;BMP180;7086;48.116;11.580;2024-03-23T01:30:08;94685.00;;;16.70
14023;BMP180;7086;48.116;11.580;2024-03-23T01:32:35;94690.00;;;16.70
14023;BMP180;7086;48.116;11.580;2024-03-23T01:35:00;94685.00;;;16.70
14023;BMP180;7086;48.116;11.580;2024-03-23T01:37:28;94663.00;;;16.70
14023;BMP180;7086;48.116;11.580;2024-03-23T01:39:53;94677.00;;;16.70
14023;BMP180;7086;48.116;11.580;2024-03-23T01:42:20;94680.00;;;16.70
14023;BMP180;7086;48.116;11.580;2024-03-23T01:44:46;94666.00;;;16.70
14023;BMP180;7086;48.116;11.580;2024-03-23T01:47:15;94677.00;;;16.70
14023;BMP180;7086;48.116;11.580;2024-03-23T01:49:41;94680.00;;;16.70
14023;BMP180;7086;48.116;11.580;2024-03-23T01:52:08;94674.00;;;16.70
14023;BMP180;7086;48.116;11.580;2024-03-23T01:54:34;94670.00;;;16.60
14023;BMP180;7086;48.116;11.580;2024-03-23T01:57:02;94667.00;;;16.60
14023;BMP180;7086;48.116;11.580;2024-03-23T01:59:28;94665.00;;;16.60
14023;BMP180;7086;48.116;11.580;2024-03-23T02:01:55;94660.00;;;16.60
14023;BMP180;7086;48.116;11.580;2024-03-23T02:04:22;94653.00;;;16.60
14023;BMP180;7086;48.116;11.580;2024-03-23T02:06:49;94658.00;;;16.60
14023;BMP180;7086;48.116;11.580;2024-03-23T02:09:15;94643.00;;;16.60
14023;BMP180;7086;48.116;11.580;2024-03-23T02:11:42;94648.00;;;16.60
14023;BMP180;7086;48.116;11.580;2024-03-23T02:14:08;94644.00;;;16.60
14023;BMP180;7086;48.116;11.580;2024-03-23T02:16:35;94642.00;;;16.60
14023;BMP180;7086;48.116;11.580;2024-03-23T02:19:01;94642.00;;;16.60
14023;BMP180;7086;48.116;11.580;2024-03-23T02:21:29;94643.00;;;16.50
14023;BMP180;7086;48.116;11.580;2024-03-23T02:23:59;94637.00;;;16.50
14023;BMP180;7086;48.116;11.580;2024-03-23T02:26:26;94640.00;;;16.50
14023;BMP180;7086;48.116;11.580;2024-03-23T02:28:52;94633.00;;;16.50
14023;BMP180;7086;48.116;11.580;2024-03-23T02:31:19;94630.00;;;16.50
14023;BMP180;7086;48.116;11.580;2024-03-23T02:33:45;94624.00;;;16.40
14023;BMP180;7086;48.116;11.580;2024-03-23T02:36:12;94625.00;;;16.40
14023;BMP180;7086;48.116;11.580;2024-03-23T02:38:39;94613.00;;;16.40
14023;BMP180;7086;48.116;11.580;2024-03-23T02:41:06;94616.00;;;16.30
14023;BMP180;7086;48.116;11.580;2024-03-23T02:43:33;94619.00;;;16.30
14023;BMP180;7086;48.116;11.580;2024-03-23T02:45:59;94604.00;;;16.30
14023;BMP180;7086;48.116;11.580;2024-03-23T02:48:26;94600.00;;;16.30
14023;BMP180;7086;48.116;11.580;2024-03-23T02:50:52;94605.00;;;16.30
14023;BMP180;7086;48.116;11.580;2024-03-23T02:53:19;94603.00;;;16.30
14023;BMP180;7086;48.116;11.580;2024-03-23T02:55:45;94605.00;;;16.30
14023;BMP180;7086;48.116;11.580;2024-03-23T02:58:14;94599.00;;;16.20
14023;BMP180;7086;48.116;11.580;2024-03-23T03:00:40;94598.00;;;16.20
14023;BMP180;7086;48.116;11.580;2024-03-23T03:03:07;94605.00;;;16.20
14023;BMP180;7086;48.116;11.580;2024-03-23T03:05:34;94572.00;;;16.20
14023;BMP180;7086;48.116;11.580;2024-03-23T03:08:01;94595.00;;;16.10
14023;BMP180;7086;48.116;11.580;2024-03-23T03:10:27;94594.00;;;16.10
14023;BMP180;7086;48.116;11.580;2024-03-23T03:12:54;94589.00;;;16.10
14023;BMP180;7086;48.116;11.580;2024-03-23T03:15:21;94592.00;;;16.00
14023;BMP180;7086;48.116;11.580;2024-03-23T03:17:48;94586.00;;;16.00
14023;BMP180;7086;48.116;11.580;2024-03-23T03:20:14;94583.00;;;15.90
14023;BMP180;7086;48.116;11.580;2024-03-23T03:22:43;94581.00;;;15.90
14023;BMP180;7086;48.116;11.580;2024-03-23T03:25:09;94583.00;;;15.80
14023;BMP180;7086;48.116;11.580;2024-03-23T03:27:36;94574.00;;;15.80
14023;BMP180;7086;48.116;11.580;2024-03-23T03:30:02;94564.00;;;15.80
14023;BMP180;7086;48.116;11.580;2024-03-23T03:32:32;94538.00;;;15.70
14023;BMP180;7086;48.116;11.580;2024-03-23T03:34:58;94572.00;;;15.70
14023;BMP180;7086;48.116;11.580;2024-03-23T03:37:25;94571.00;;;15.60
14023;BMP180;7086;48.116;11.580;2024-03-23T03:39:51;94561.00;;;15.60
14023;BMP180;7086;48.116;11.580;2024-03-23T03:42:18;94565.00;;;15.60
14023;BMP180;7086;48.116;11.580;2024-03-23T03:44:44;94563.00;;;15.50
14023;BMP180;7086;48.116;11.580;2024-03-23T03:47:11;94561.00;;;15.50
14023;BMP180;7086;48.116;11.580;2024-03-23T03:49:38;94556.00;;;15.40
14023;BMP180;7086;48.116;11.580;2024-03-23T03:52:06;94547.00;;;15.40
14023;BMP180;7086;48.116;11.580;2024-03-23T03:54:32;94547.00;;;15.40
14023;BMP180;7086;48.116;11.580;2024-03-23T03:56:59;94538.00;;;15.30
14023;BMP180;7086;48.116;11.580;2024-03-23T03:59:26;94540.00;;;15.30
14023;BMP180;7086;48.116;11.580;2024-03-23T04:01:53;94544.00;;;15.30
14023;BMP180;7086;48.116;11.580;2024-03-23T04:04:19;94541.00;;;15.30
14023;BMP180;7086;48.116;11.580;2024-03-23T04:06:47;94541.00;;;15.30
14023;BMP180;7086;48.116;11.580;2024-03-23T04:09:13;94530.00;;;15.30
14023;BMP180;7086;48.116;11.580;2024-03-23T04:11:40;94522.00;;;15.20
14023;BMP180;7086;48.116;11.580;2024-03-23T04:14:06;94523.00;;;15.20
14023;BMP180;7086;48.116;11.580;2024-03-23T04:16:34;94516.00;;;15.20
14023;BMP180;7086;48.116;11.580;2024-03-23T04:19:01;94514.00;;;15.30
14023;BMP180;7086;48.116;11.580;2024-03-23T04:21:28;94509.00;;;15.30
14023;BMP180;7086;48.116;11.580;2024-03-23T04:23:55;94497.00;;;15.30
14023;BMP180;7086;48.116;11.580;2024-03-23T04:26:22;94496.00;;;15.30
14023;BMP180;7086;48.116;11.580;2024-03-23T04:28:48;94492.00;;;15.30
14023;BMP180;7086;48.116;11.580;2024-03-23T04:31:15;94481.00;;;15.30
14023;BMP180;7086;48.116;11.580;2024-03-23T04:33:41;94481.00;;;15.40
14023;BMP180;7086;48.116;11.580;2024-03-23T04:36:08;94481.00;;;15.40
14023;BMP180;7086;48.116;11.580;2024-03-23T04:38:35;94473.00;;;15.40
14023;BMP180;7086;48.116;11.580;2024-03-23T04:41:04;94477.00;;;15.50
14023;BMP180;7086;48.116;11.580;2024-03-23T04:43:31;94476.00;;;15.50
14023;BMP180;7086;48.116;11.580;2024-03-23T04:45:58;94472.00;;;15.50
14023;BMP180;7086;48.116;11.580;2024-03-23T04:48:25;94468.00;;;15.50
14023;BMP180;7086;48.116;11.580;2024-03-23T04:50:55;94466.00;;;15.60
14023;BMP180;7086;48.116;11.580;2024-03-23T04:53:23;94450.00;;;15.60
14023;BMP180;7086;48.116;11.580;2024-03-23T04:55:54;94465.00;;;15.60
14023;BMP180;7086;48.116;11.580;2024-03-23T04:58:22;94438.00;;;15.60
14023;BMP180;7086;48.116;11.580;2024-03-23T05:00:53;94448.00;;;15.50
14023;BMP180;7086;48.116;11.580;2024-03-23T05:03:20;94446.00;;;15.50
14023;BMP180;7086;48.116;11.580;2024-03-23T05:05:47;94438.00;;;15.50
14023;BMP180;7086;48.116;11.580;2024-03-23T05:08:14;94426.00;;;15.40
14023;BMP180;7086;48.116;11.580;2024-03-23T05:10:41;94426.00;;;15.40
14023;BMP180;7086;48.116;11.580;2024-03-23T05:13:08;94422.00;;;15.30
14023;BMP180;7086;48.116;11.580;2024-03-23T05:15:35;94434.00;;;15.30
14023;BMP180;7086;48.116;11.580;2024-03-23T05:18:03;94432.00;;;15.20
14023;BMP180;7086;48.116;11.580;2024-03-23T05:20:30;94414.00;;;15.20
14023;BMP180;7086;48.116;11.580;2024-03-23T05:22:57;94418.00;;;15.20
14023;BMP180;7086;48.116;11.580;2024-03-23T05:25:23;94428.00;;;15.10
14023;BMP180;7086;48.116;11.580;2024-03-23T05:27:50;94415.00;;;15.10
14023;BMP180;7086;48.116;11.580;2024-03-23T05:30:16;94418.00;;;15.10
14023;BMP180;7086;48.116;11.580;2024-03-23T05:32:44;94421.00;;;15.00
14023;BMP180;7086;48.116;11.580;2024-03-23T05:35:10;94412.00;;;15.00
14023;BMP180;7086;48.116;11.580;2024-03-23T05:37:37;94396.00;;;15.00
14023;BMP180;7086;48.116;11.580;2024-03-23T05:40:04;94415.00;;;14.90
14023;BMP180;7086;48.116;11.580;2024-03-23T05:42:31;94419.00;;;15.00
14023;BMP180;7086;48.116;11.580;2024-03-23T05:44:57;94402.00;;;15.00
14023;BMP180;7086;48.116;11.580;2024-03-23T05:47:24;94414.00;;;15.00
14023;BMP180;7086;48.116;11.580;2024-03-23T05:49:51;94421.00;;;15.00
14023;BMP180;7086;48.116;11.580;2024-03-23T05:52:18;94410.00;;;15.00
14023;BMP180;7086;48.116;11.580;2024-03-23T05:54:46;94413.00;;;15.10
14023;BMP180;7086;48.116;11.580;2024-03-23T05:57:13;94403.00;;;15.00
14023;BMP180;7086;48.116;11.580;2024-03-23T05:59:39;94404.00;;;15.00
14023;BMP180;7086;48.116;11.580;2024-03-23T06:02:06;94367.00;;;15.00
14023;BMP180;7086;48.116;11.580;2024-03-23T06:04:32;94396.00;;;15.00
14023;BMP180;7086;48.116;11.580;2024-03-23T06:07:01;94388.00;;;15.10
14023;BMP180;7086;48.116;11.580;2024-03-23T06:09:27;94384.00;;;15.10
14023;BMP180;7086;48.116;11.580;2024-03-23T06:11:56;94355.00;;;15.20
14023;BMP180;7086;48.116;11.580;2024-03-23T06:14:22;94380.00;;;15.20
14023;BMP180;7086;48.116;11.580;2024-03-23T06:16:49;94376.00;;;15.20
14023;BMP180;7086;48.116;11.580;2024-03-23T06:19:15;94377.00;;;15.40
14023;BMP180;7086;48.116;11.580;2024-03-23T06:21:43;94364.00;;;15.40
14023;BMP180;7086;48.116;11.580;2024-03-23T06:24:11;94357.00;;;15.40
14023;BMP180;7086;48.116;11.580;2024-03-23T06:26:38;94357.00;;;15.50
14023;BMP180;7086;48.116;11.580;2024-03-23T06:29:04;94351.00;;;15.50
14023;BMP180;7086;48.116;11.580;2024-03-23T06:31:31;94346.00;;;15.60
14023;BMP180;7086;48.116;11.580;2024-03-23T06:33:57;94341.00;;;15.60
14023;BMP180;7086;48.116;11.580;2024-03-23T06:36:24;94331.00;;;15.70
14023;BMP180;7086;48.116;11.580;2024-03-23T06:38:50;94320.00;;;15.80
14023;BMP180;7086;48.116;11.580;2024-03-23T06:41:19;94323.00;;;15.80
14023;BMP180;7086;48.116;11.580;2024-03-23T06:43:45;94304.00;;;15.90
14023;BMP180;7086;48.116;11.580;2024-03-23T06:46:12;94298.00;;;16.00
14023;BMP180;7086;48.116;11.580;2024-03-23T06:48:38;94289.00;;;16.10
14023;BMP180;7086;48.116;11.580;2024-03-23T06:51:05;94281.00;;;16.20
14023;BMP180;7086;48.116;11.580;2024-03-23T06:53:32;94299.00;;;16.30
14023;BMP180;7086;48.116;11.580;2024-03-23T06:55:59;94291.00;;;16.40
14023;BMP180;7086;48.116;11.580;2024-03-23T06:58:28;94291.00;;;16.60
14023;BMP180;7086;48.116;11.580;2024-03-23T07:00:54;94286.00;;;16.70
14023;BMP180;7086;48.116;11.580;2024-03-23T07:03:20;94282.00;;;16.80
14023;BMP180;7086;48.116;11.580;2024-03-23T07:05:48;94283.00;;;17.00
14023;BMP180;7086;48.116;11.580;2024-03-23T07:08:14;94281.00;;;17.20
14023;BMP180;7086;48.116;11.580;2024-03-23T07:10:46;94277.00;;;17.40
14023;BMP180;7086;48.116;11.580;2024-03-23T07:13:12;94279.00;;;17.60
14023;BMP180;7086;48.116;11.580;2024-03-23T07:15:41;94282.00;;;17.80
14023;BMP180;7086;48.116;11.580;2024-03-23T07:18:07;94271.00;;;18.00
14023;BMP180;7086;48.116;11.580;2024-03-23T07:20:34;94260.00;;;18.20
14023;BMP180;7086;48.116;11.580;2024-03-23T07:23:00;94276.00;;;18.40
14023;BMP180;7086;48.116;11.580;2024-03-23T07:25:27;94269.00;;;18.50
14023;BMP180;7086;48.116;11.580;2024-03-23T07:27:54;94276.00;;;18.70
14023;BMP180;7086;48.116;11.580;2024-03-23T07:30:21;94268.00;;;18.80
14023;BMP180;7086;48.116;11.580;2024-03-23T07:32:49;94285.00;;;19.00
14023;BMP180;7086;48.116;11.580;2024-03-23T07:35:16;94267.00;;;19.20
14023;BMP180;7086;48.116;11.580;2024-03-23T07:37:43;94303.00;;;19.30
14023;BMP180;7086;48.116;11.580;2024-03-23T07:40:13;94316.00;;;19.50
14023;BMP180;7086;48.116;11.580;2024-03-23T07:42:39;94355.00;;;19.60
14023;BMP180;7086;48.116;11.580;2024-03-23T07:45:07;94359.00;;;19.70
14023;BMP180;7086;48.116;11.580;2024-03-23T07:47:35;94353.00;;;19.80
14023;BMP180;7086;48.116;11.580;2024-03-23T07:50:04;94382.00;;;19.70
14023;BMP180;7086;48.116;11.580;2024-03-23T07:52:30;94390.00;;;19.70
14023;BMP180;7086;48.116;11.580;2024-03-23T07:54:57;94397.00;;;19.50
14023;BMP180;7086;48.116;11.580;2024-03-23T07:57:23;94385.00;;;19.30
14023;BMP180;7086;48.116;11.580;2024-03-23T07:59:50;94407.00;;;19.10
14023;BMP180;7086;48.116;11.580;2024-03-23T08:02:16;94392.00;;;18.90
14023;BMP180;7086;48.116;11.580;2024-03-23T08:04:43;94393.00;;;18.60
14023;BMP180;7086;48.116;11.580;2024-03-23T08:07:12;94390.00;;;18.40
14023;BMP180;7086;48.116;11.580;2024-03-23T08:09:38;94392.00;;;18.20
14023;BMP180;7086;48.116;11.580;2024-03-23T08:12:05;94420.00;;;17.90
14023;BMP180;7086;48.116;11.580;2024-03-23T08:14:31;94427.00;;;17.60
14023;BMP180;7086;48.116;11.580;2024-03-23T08:16:58;94437.00;;;17.40
14023;BMP180;7086;48.116;11.580;2024-03-23T08:19:24;94444.00;;;17.20
14023;BMP180;7086;48.116;11.580;2024-03-23T08:21:51;94467.00;;;17.00
14023;BMP180;7086;48.116;11.580;2024-03-23T08:24:18;94469.00;;;16.80
14023;BMP180;7086;48.116;11.580;2024-03-23T08:26:46;94470.00;;;16.60
14023;BMP180;7086;48.116;11.580;2024-03-23T08:29:12;94485.00;;;16.00
14023;BMP180;7086;48.116;11.580;2024-03-23T08:31:39;94476.00;;;16.30
14023;BMP180;7086;48.116;11.580;2024-03-23T08:34:05;94500.00;;;16.10
14023;BMP180;7086;48.116;11.580;2024-03-23T08:36:32;94479.00;;;16.00
14023;BMP180;7086;48.116;11.580;2024-03-23T08:38:58;94517.00;;;15.90
14023;BMP180;7086;48.116;11.580;2024-03-23T08:41:27;94540.00;;;15.80
14023;BMP180;7086;48.116;11.580;2024-03-23T08:43:53;94523.00;;;15.60
14023;BMP180;7086;48.116;11.580;2024-03-23T08:46:20;94537.00;;;15.40
14023;BMP180;7086;48.116;11.580;2024-03-23T08:48:46;94532.00;;;15.30
14023;BMP180;7086;48.116;11.580;2024-03-23T08:51:15;94542.00;;;15.20
14023;BMP180;7086;48.116;11.580;2024-03-23T08:53:42;94568.00;;;15.10
14023;BMP180;7086;48.116;11.580;2024-03-23T08:56:10;94569.00;;;14.90
14023;BMP180;7086;48.116;11.580;2024-03-23T08:58:38;94572.00;;;14.80
14023;BMP180;7086;48.116;11.580;2024-03-23T09:01:07;94574.00;;;14.70
14023;BMP180;7086;48.116;11.580;2024-03-23T09:03:34;94585.00;;;14.70
14023;BMP180;7086;48.116;11.580;2024-03-23T09:06:00;94591.00;;;14.60
14023;BMP180;7086;48.116;11.580;2024-03-23T09:08:28;94596.00;;;14.50
14023;BMP180;7086;48.116;11.580;2024-03-23T09:10:54;94603.00;;;14.40
14023;BMP180;7086;48.116;11.580;2024-03-23T09:13:21;94593.00;;;14.40
14023;BMP180;7086;48.116;11.580;2024-03-23T09:15:49;94584.00;;;14.30
14023;BMP180;7086;48.116;11.580;2024-03-23T09:18:17;94564.00;;;14.30
14023;BMP180;7086;48.116;11.580;2024-03-23T09:20:43;94592.00;;;14.30
14023;BMP180;7086;48.116;11.580;2024-03-23T09:23:10;94601.00;;;14.30
14023;BMP180;7086;48.116;11.580;2024-03-23T09:25:36;94602.00;;;14.20
14023;BMP180;7086;48.116;11.580;2024-03-23T09:28:05;94607.00;;;14.20
14023;BMP180;7086;48.116;11.580;2024-03-23T09:30:32;94590.00;;;14.20
14023;BMP180;7086;48.116;11.580;2024-03-23T09:33:01;94594.00;;;14.20
14023;BMP180;7086;48.116;11.580;2024-03-23T09:35:27;94604.00;;;14.20
14023;BMP180;7086;48.116;11.580;2024-03-23T09:37:54;94610.00;;;14.10
14023;BMP180;7086;48.116;11.580;2024-03-23T09:40:20;94624.00;;;14.10
14023;BMP180;7086;48.116;11.580;2024-03-23T09:42:50;94616.00;;;14.10
14023;BMP180;7086;48.116;11.580;2024-03-23T09:45:28;94619.00;;;14.00
14023;BMP180;7086;48.116;11.580;2024-03-23T09:47:55;94628.00;;;13.90
14023;BMP180;7086;48.116;11.580;2024-03-23T09:50:23;94644.00;;;13.80
14023;BMP180;7086;48.116;11.580;2024-03-23T09:52:50;94603.00;;;13.80
14023;BMP180;7086;48.116;11.580;2024-03-23T09:55:16;94647.00;;;13.70
14023;BMP180;7086;48.116;11.580;2024-03-23T09:57:43;94650.00;;;13.60
14023;BMP180;7086;48.116;11.580;2024-03-23T10:00:10;94652.00;;;13.60
14023;BMP180;7086;48.116;11.580;2024-03-23T10:02:38;94646.00;;;13.50
14023;BMP180;7086;48.116;11.580;2024-03-23T10:05:05;94652.00;;;13.40
14023;BMP180;7086;48.116;11.580;2024-03-23T10:07:48;94667.00;;;13.40
14023;BMP180;7086;48.116;11.580;2024-03-23T10:10:16;94671.00;;;13.30
14023;BMP180;7086;48.116;11.580;2024-03-23T10:12:45;94674.00;;;13.20
14023;BMP180;7086;48.116;11.580;2024-03-23T10:15:18;94674.00;;;13.10
14023;BMP180;7086;48.116;11.580;2024-03-23T10:17:46;94607.00;;;13.20
14023;BMP180;7086;48.116;11.580;2024-03-23T10:20:12;94662.00;;;13.20
14023;BMP180;7086;48.116;11.580;2024-03-23T10:22:39;94667.00;;;13.20
14023;BMP180;7086;48.116;11.580;2024-03-23T10:25:10;94673.00;;;13.20
14023;BMP180;7086;48.116;11.580;2024-03-23T10:27:39;94665.00;;;13.20
14023;BMP180;7086;48.116;11.580;2024-03-23T10:30:11;94623.00;;;13.20
14023;BMP180;7086;48.116;11.580;2024-03-23T10:32:37;94674.00;;;13.20
14023;BMP180;7086;48.116;11.580;2024-03-23T10:35:14;94680.00;;;13.20
14023;BMP180;7086;48.116;11.580;2024-03-23T10:37:41;94674.00;;;13.10
14023;BMP180;7086;48.116;11.580;2024-03-23T10:40:12;94678.00;;;13.20
14023;BMP180;7086;48.116;11.580;2024-03-23T10:42:38;94684.00;;;13.20
14023;BMP180;7086;48.116;11.580;2024-03-23T10:45:06;94694.00;;;13.20
14023;BMP180;7086;48.116;11.580;2024-03-23T10:47:35;94721.00;;;13.20
14023;BMP180;7086;48.116;11.580;2024-03-23T10:50:03;94654.00;;;13.20
14023;BMP180;7086;48.116;11.580;2024-03-23T10:52:31;94737.00;;;13.10
14023;BMP180;7086;48.116;11.580;2024-03-23T10:54:58;94714.00;;;13.00
14023;BMP180;7086;48.116;11.580;2024-03-23T10:57:30;94738.00;;;12.90
14023;BMP180;7086;48.116;11.580;2024-03-23T10:59:59;94739.00;;;12.80
14023;BMP180;7086;48.116;11.580;2024-03-23T11:02:27;94742.00;;;12.70
14023;BMP180;7086;48.116;11.580;2024-03-23T11:04:55;94742.00;;;12.60
14023;BMP180;7086;48.116;11.580;2024-03-23T11:07:31;94740.00;;;12.50
14023;BMP180;7086;48.116;11.580;2024-03-23T11:09:59;94712.00;;;12.50
14023;BMP180;7086;48.116;11.580;2024-03-23T11:12:28;94747.00;;;12.40
14023;BMP180;7086;48.116;11.580;2024-03-23T11:15:00;94751.00;;;12.50
14023;BMP180;7086;48.116;11.580;2024-03-23T11:17:27;94724.00;;;12.50
14023;BMP180;7086;48.116;11.580;2024-03-23T11:19:55;94765.00;;;12.50
14023;BMP180;7086;48.116;11.580;2024-03-23T11:22:40;94797.00;;;12.50
14023;BMP180;7086;48.116;11.580;2024-03-23T11:25:17;94766.00;;;12.50
14023;BMP180;7086;48.116;11.580;2024-03-23T11:27:45;94745.00;;;12.60
14023;BMP180;7086;48.116;11.580;2024-03-23T11:30:13;94721.00;;;12.60
14023;BMP180;7086;48.116;11.580;2024-03-23T11:32:40;94729.00;;;12.70
14023;BMP180;7086;48.116;11.580;2024-03-23T11:35:08;94715.00;;;12.70
14023;BMP180;7086;48.116;11.580;2024-03-23T11:37:36;94748.00;;;12.80
14023;BMP180;7086;48.116;11.580;2024-03-23T11:40:19;94762.00;;;12.90
14023;BMP180;7086;48.116;11.580;2024-03-23T11:42:47;94745.00;;;13.00
14023;BMP180;7086;48.116;11.580;2024-03-23T11:45:14;94729.00;;;13.00
14023;BMP180;7086;48.116;11.580;2024-03-23T11:47:41;94748.00;;;13.10
14023;BMP180;7086;48.116;11.580;2024-03-23T11:50:09;94768.00;;;13.20
14023;BMP180;7086;48.116;11.580;2024-03-23T11:52:36;94673.00;;;13.30
14023;BMP180;7086;48.116;11.580;2024-03-23T11:55:04;94713.00;;;13.10
14023;BMP180;7086;48.116;11.580;2024-03-23T11:57:30;94692.00;;;13.40
14023;BMP180;7086;48.116;11.580;2024-03-23T11:59:59;94735.00;;;13.50
14023;BMP180;7086;48.116;11.580;2024-03-23T12:02:25;94669.00;;;13.60
14023;BMP180;7086;48.116;11.580;2024-03-23T12:04:53;94732.00;;;13.80
14023;BMP180;7086;48.116;11.580;2024-03-23T12:07:20;94696.00;;;13.80
14023;BMP180;7086;48.116;11.580;2024-03-23T12:10:02;94745.00;;;14.00
14023;BMP180;7086;48.116;11.580;2024-03-23T12:12:28;94745.00;;;14.00
14023;BMP180;7086;48.116;11.580;2024-03-23T12:15:03;94739.00;;;14.10
14023;BMP180;7086;48.116;11.580;2024-03-23T12:17:30;94740.00;;;14.10
14023;BMP180;7086;48.116;11.580;2024-03-23T12:19:58;94708.00;;;14.10
14023;BMP180;7086;48.116;11.580;2024-03-23T12:22:24;94731.00;;;14.10
14023;BMP180;7086;48.116;11.580;2024-03-23T12:24:52;94725.00;;;14.10
14023;BMP180;7086;48.116;11.580;2024-03-23T12:27:18;94742.00;;;13.80
14023;BMP180;7086;48.116;11.580;2024-03-23T12:29:46;94724.00;;;14.00
14023;BMP180;7086;48.116;11.580;2024-03-23T12:32:14;94723.00;;;14.00
14023;BMP180;7086;48.116;11.580;2024-03-23T12:34:42;94638.00;;;13.90
14023;BMP180;7086;48.116;11.580;2024-03-23T12:37:08;94679.00;;;13.80
14023;BMP180;7086;48.116;11.580;2024-03-23T12:39:36;94713.00;;;13.90
14023;BMP180;7086;48.116;11.580;2024-03-23T12:42:02;94637.00;;;13.90
14023;BMP180;7086;48.116;11.580;2024-03-23T12:44:30;94722.00;;;13.90
14023;BMP180;7086;48.116;11.580;2024-03-23T12:46:56;94599.00;;;14.00
14023;BMP180;7086;48.116;11.580;2024-03-23T12:49:24;94698.00;;;14.00
14023;BMP180;7086;48.116;11.580;2024-03-23T12:51:54;94754.00;;;13.80
14023;BMP180;7086;48.116;11.580;2024-03-23T12:54:21;94713.00;;;14.20
14023;BMP180;7086;48.116;11.580;2024-03-23T12:56:47;94689.00;;;14.30
14023;BMP180;7086;48.116;11.580;2024-03-23T12:59:15;94728.00;;;14.40
14023;BMP180;7086;48.116;11.580;2024-03-23T13:01:42;94714.00;;;14.40
14023;BMP180;7086;48.116;11.580;2024-03-23T13:04:09;94737.00;;;14.60
14023;BMP180;7086;48.116;11.580;2024-03-23T13:06:36;94658.00;;;14.70
14023;BMP180;7086;48.116;11.580;2024-03-23T13:09:04;94733.00;;;14.80
14023;BMP180;7086;48.116;11.580;2024-03-23T13:11:30;94734.00;;;14.90
14023;BMP180;7086;48.116;11.580;2024-03-23T13:13:58;94643.00;;;15.00
14023;BMP180;7086;48.116;11.580;2024-03-23T13:16:24;94723.00;;;15.10
14023;BMP180;7086;48.116;11.580;2024-03-23T13:18:51;94719.00;;;15.20
14023;BMP180;7086;48.116;11.580;2024-03-23T13:21:17;94714.00;;;15.30
14023;BMP180;7086;48.116;11.580;2024-03-23T13:23:47;94628.00;;;15.30
14023;BMP180;7086;48.116;11.580;2024-03-23T13:26:15;94691.00;;;15.30
14023;BMP180;7086;48.116;11.580;2024-03-23T13:28:42;94676.00;;;15.30
14023;BMP180;7086;48.116;11.580;2024-03-23T13:31:08;94691.00;;;15.30
14023;BMP180;7086;48.116;11.580;2024-03-23T13:33:36;94666.00;;;15.30
14023;BMP180;7086;48.116;11.580;2024-03-23T13:36:03;94567.00;;;15.30
14023;BMP180;7086;48.116;11.580;2024-03-23T13:38:30;94673.00;;;15.30
14023;BMP180;7086;48.116;11.580;2024-03-23T13:40:59;94691.00;;;15.30
14023;BMP180;7086;48.116;11.580;2024-03-23T13:43:27;94670.00;;;15.30
14023;BMP180;7086;48.116;11.580;2024-03-23T13:45:54;94708.00;;;15.30
14023;BMP180;7086;48.116;11.580;2024-03-23T13:48:23;94697.00;;;15.30
14023;BMP180;7086;48.116;11.580;2024-03-23T13:50:57;94701.00;;;15.30
14023;BMP180;7086;48.116;11.580;2024-03-23T13:53:24;94697.00;;;15.20
14023;BMP180;7086;48.116;11.580;2024-03-23T13:55:50;94699.00;;;15.20
14023;BMP180;7086;48.116;11.580;2024-03-23T13:58:19;94685.00;;;15.10
14023;BMP180;7086;48.116;11.580;2024-03-23T14:00:45;94721.00;;;15.00
14023;BMP180;7086;48.116;11.580;2024-03-23T14:03:13;94756.00;;;14.90
14023;BMP180;7086;48.116;11.580;2024-03-23T14:05:40;94771.00;;;14.80
14023;BMP180;7086;48.116;11.580;2024-03-23T14:08:12;94745.00;;;14.20
14023;BMP180;7086;48.116;11.580;2024-03-23T14:10:41;94779.00;;;14.10
14023;BMP180;7086;48.116;11.580;2024-03-23T14:13:09;94679.00;;;13.80
14023;BMP180;7086;48.116;11.580;2024-03-23T14:15:38;94766.00;;;13.50
14023;BMP180;7086;48.116;11.580;2024-03-23T14:18:06;94698.00;;;13.20
14023;BMP180;7086;48.116;11.580;2024-03-23T14:20:32;94679.00;;;12.90
14023;BMP180;7086;48.116;11.580;2024-03-23T14:22:59;94749.00;;;12.80
14023;BMP180;7086;48.116;11.580;2024-03-23T14:25:26;94723.00;;;12.70
14023;BMP180;7086;48.116;11.580;2024-03-23T14:27:54;94709.00;;;12.60
14023;BMP180;7086;48.116;11.580;2024-03-23T14:30:20;94752.00;;;12.50
14023;BMP180;7086;48.116;11.580;2024-03-23T14:32:49;94752.00;;;12.40
14023;BMP180;7086;48.116;11.580;2024-03-23T14:35:17;94768.00;;;12.30
14023;BMP180;7086;48.116;11.580;2024-03-23T14:37:44;94753.00;;;12.30
14023;BMP180;7086;48.116;11.580;2024-03-23T14:40:12;94757.00;;;12.20
14023;BMP180;7086;48.116;11.580;2024-03-23T14:42:39;94702.00;;;12.20
14023;BMP180;7086;48.116;11.580;2024-03-23T14:45:06;94750.00;;;12.20
14023;BMP180;7086;48.116;11.580;2024-03-23T14:47:33;94754.00;;;12.10
14023;BMP180;7086;48.116;11.580;2024-03-23T14:50:01;94799.00;;;12.00
14023;BMP180;7086;48.116;11.580;2024-03-23T14:52:28;94713.00;;;12.00
14023;BMP180;7086;48.116;11.580;2024-03-23T14:54:54;94671.00;;;11.90
14023;BMP180;7086;48.116;11.580;2024-03-23T14:57:22;94782.00;;;11.90
14023;BMP180;7086;48.116;11.580;2024-03-23T14:59:48;94812.00;;;11.80
14023;BMP180;7086;48.116;11.580;2024-03-23T15:02:25;94655.00;;;11.80
14023;BMP180;7086;48.116;11.580;2024-03-23T15:05:08;94743.00;;;11.80